Time;durP1;ratioP1;P1;durP2;ratioP2;P2;SDS_P1;SDS_P2;PMS_P1;PMS_P2;Temp;Humidity;BMP_temperature;BMP_pressure;BME280_temperature;BME280_humidity;BME280_pressure;Samples;Min_cycle;Max_cycle;Signal;HPM_P1;HPM_P2
2023/03/26 00:01:49;;;;;;;3.42;1.40;;;7.40;99.90;;;;;;6067153;23;20281;-68
2023/03/26 00:04:18;;;;;;;2.22;1.60;;;7.40;99.90;;;;;;6087088;23;20284;-68
2023/03/26 00:06:47;;;;;;;5.30;1.52;;;7.40;99.90;;;;;;6091064;23;20217;-68
2023/03/26 00:09:16;;;;;;;2.67;1.85;;;7.30;99.90;;;;;;6086008;23;20251;-68
2023/03/26 00:11:45;;;;;;;3.13;1.90;;;7.30;99.90;;;;;;6088968;23;20216;-69
2023/03/26 00:14:12;;;;;;;3.60;1.75;;;7.30;99.90;;;;;;6089289;23;20239;-69
2023/03/26 00:16:41;;;;;;;2.88;1.70;;;7.30;99.90;;;;;;6065350;23;20297;-78
2023/03/26 00:19:11;;;;;;;2.00;1.42;;;7.60;99.90;;;;;;6005340;23;20191;-78
2023/03/26 00:21:38;;;;;;;2.83;1.88;;;7.30;99.90;;;;;;6004516;23;20647;-78
2023/03/26 00:24:08;;;;;;;1.90;1.40;;;7.20;99.90;;;;;;5999556;23;20198;-78
2023/03/26 00:26:37;;;;;;;3.05;1.75;;;7.20;99.90;;;;;;6004850;23;20211;-77
2023/03/26 00:29:05;;;;;;;5.68;1.58;;;7.20;99.90;;;;;;6002918;23;20195;-76
2023/03/26 00:31:34;;;;;;;7.32;1.90;;;7.20;99.90;;;;;;5999475;23;20366;-77
2023/03/26 00:34:04;;;;;;;3.42;1.48;;;7.20;99.90;;;;;;6003622;23;20194;-77
2023/03/26 00:36:34;;;;;;;2.25;1.50;;;7.30;99.90;;;;;;5993074;23;20214;-77
2023/03/26 00:39:04;;;;;;;3.05;1.40;;;7.20;99.90;;;;;;6004229;23;20191;-77
2023/03/26 00:41:31;;;;;;;2.50;1.73;;;7.30;99.90;;;;;;6004270;23;20198;-77
2023/03/26 00:43:59;;;;;;;3.03;2.05;;;7.30;99.90;;;;;;5990991;23;20230;-78
2023/03/26 00:46:28;;;;;;;2.38;1.70;;;7.60;99.90;;;;;;5977126;23;20218;-78
2023/03/26 00:48:57;;;;;;;5.32;2.30;;;7.40;99.90;;;;;;5993712;23;20194;-78
2023/03/26 00:51:24;;;;;;;1.80;1.55;;;7.40;99.90;;;;;;6016620;23;20201;-78
2023/03/26 00:53:53;;;;;;;5.03;1.75;;;7.80;99.90;;;;;;6021429;23;20222;-78
2023/03/26 00:56:20;;;;;;;4.00;1.60;;;7.60;99.90;;;;;;5981764;23;20600;-77
2023/03/26 00:58:48;;;;;;;3.65;1.60;;;7.70;99.90;;;;;;5989680;23;20643;-78
2023/03/26 01:01:19;;;;;;;4.85;1.70;;;7.40;99.90;;;;;;5982866;23;20232;-77
2023/03/26 01:03:47;;;;;;;6.43;1.70;;;7.40;99.90;;;;;;6005103;23;20194;-78
2023/03/26 01:06:19;;;;;;;4.60;1.92;;;7.60;99.90;;;;;;6005438;23;20287;-78
2023/03/26 01:08:49;;;;;;;4.68;2.08;;;7.30;99.90;;;;;;6004460;23;20224;-78
2023/03/26 01:11:22;;;;;;;4.53;2.05;;;7.30;99.90;;;;;;5993290;23;20218;-78
2023/03/26 01:13:52;;;;;;;5.43;1.73;;;7.40;99.90;;;;;;5990373;23;20751;-77
2023/03/26 01:16:24;;;;;;;3.80;1.75;;;7.20;99.90;;;;;;6005846;23;20261;-77
2023/03/26 01:18:52;;;;;;;3.05;1.40;;;7.20;99.90;;;;;;5998701;23;20544;-77
2023/03/26 01:21:27;;;;;;;1.83;1.50;;;7.20;99.90;;;;;;5999231;23;20324;-77
2023/03/26 01:24:00;;;;;;;3.95;2.00;;;7.20;99.90;;;;;;6007187;23;20196;-77
2023/03/26 01:27:00;;;;;;;4.32;2.33;;;7.20;99.90;;;;;;5999493;23;20213;-77
2023/03/26 01:29:33;;;;;;;2.65;1.70;;;7.20;99.90;;;;;;5995626;23;20222;-77
2023/03/26 01:32:12;;;;;;;4.80;3.00;;;7.40;99.90;;;;;;5986355;23;20235;-77
2023/03/26 01:34:50;;;;;;;3.42;1.92;;;7.20;99.90;;;;;;5976965;23;20192;-77
2023/03/26 01:37:21;;;;;;;5.45;1.90;;;7.20;99.90;;;;;;5979239;23;20709;-77
2023/03/26 01:39:55;;;;;;;5.30;1.98;;;7.20;99.90;;;;;;6005158;23;20190;-77
2023/03/26 01:42:33;;;;;;;4.30;1.27;;;7.20;99.90;;;;;;5985584;23;20201;-77
2023/03/26 01:45:07;;;;;;;4.30;1.63;;;7.20;99.90;;;;;;5977085;24;20273;-77
2023/03/26 01:47:37;;;;;;;5.78;1.73;;;7.20;99.90;;;;;;5978430;23;20292;-77
2023/03/26 01:50:06;;;;;;;4.55;1.80;;;7.40;99.90;;;;;;5979148;23;20589;-77
2023/03/26 01:52:33;;;;;;;3.80;1.70;;;7.10;99.90;;;;;;5989719;23;20556;-77
2023/03/26 01:55:01;;;;;;;4.18;1.90;;;7.40;99.90;;;;;;6025123;23;20264;-77
2023/03/26 01:57:41;;;;;;;3.80;1.98;;;7.00;99.90;;;;;;6002862;23;20655;-77
2023/03/26 02:00:26;;;;;;;2.50;1.30;;;7.00;99.90;;;;;;5978139;23;20636;-77
2023/03/26 02:03:16;;;;;;;3.30;1.45;;;7.10;99.90;;;;;;5996420;23;20195;-77
2023/03/26 02:05:49;;;;;;;3.58;1.70;;;7.10;99.90;;;;;;5976622;23;20191;-77
2023/03/26 02:08:22;;;;;;;4.70;1.70;;;7.10;99.90;;;;;;5976776;23;20574;-77
2023/03/26 02:10:56;;;;;;;6.85;1.70;;;7.10;99.90;;;;;;5984777;23;21845;-77
2023/03/26 02:13:24;;;;;;;2.65;1.60;;;7.10;99.90;;;;;;5983307;23;20277;-77
2023/03/26 02:15:59;;;;;;;5.55;1.80;;;7.50;99.90;;;;;;5994676;23;20187;-77
2023/03/26 02:18:34;;;;;;;3.15;1.60;;;7.10;99.90;;;;;;6005000;23;20191;-77
2023/03/26 02:21:02;;;;;;;3.55;1.77;;;7.10;99.90;;;;;;6002594;23;20602;-77
2023/03/26 02:23:34;;;;;;;2.95;1.55;;;7.10;99.90;;;;;;6005969;23;20214;-77
2023/03/26 02:26:06;;;;;;;3.67;1.40;;;7.20;99.90;;;;;;6001815;23;20219;-77
2023/03/26 02:28:33;;;;;;;3.10;1.38;;;7.20;99.90;;;;;;6011588;23;20270;-77
2023/03/26 02:31:01;;;;;;;3.70;1.38;;;7.20;99.90;;;;;;5992920;23;20249;-77
2023/03/26 02:33:28;;;;;;;3.38;2.20;;;7.20;99.90;;;;;;6002776;23;20281;-77
2023/03/26 02:35:58;;;;;;;4.38;2.00;;;7.60;99.90;;;;;;6021554;23;20269;-77
2023/03/26 02:38:25;;;;;;;4.65;1.50;;;7.80;99.90;;;;;;6005389;23;20245;-77
2023/03/26 02:40:53;;;;;;;1.90;1.27;;;7.40;99.90;;;;;;6016712;23;20270;-77
2023/03/26 02:43:22;;;;;;;3.40;1.60;;;7.40;99.90;;;;;;6003320;23;20213;-77
2023/03/26 02:45:49;;;;;;;5.25;1.80;;;7.60;99.90;;;;;;5995504;23;20223;-77
2023/03/26 02:48:16;;;;;;;3.58;2.13;;;7.50;99.90;;;;;;6002060;23;20198;-77
2023/03/26 02:50:44;;;;;;;3.35;1.30;;;7.50;99.90;;;;;;6016541;23;20692;-77
2023/03/26 02:53:12;;;;;;;3.40;1.27;;;7.60;99.90;;;;;;6002422;23;20244;-77
2023/03/26 02:55:39;;;;;;;1.95;1.20;;;7.60;99.90;;;;;;6006180;23;20563;-77
2023/03/26 02:58:07;;;;;;;4.55;1.80;;;7.70;99.90;;;;;;6005310;23;20206;-77
2023/03/26 03:00:35;;;;;;;1.88;1.50;;;7.60;99.90;;;;;;6001808;23;20206;-77
2023/03/26 03:03:03;;;;;;;3.70;1.55;;;7.70;99.90;;;;;;5999573;23;20196;-77
2023/03/26 03:05:31;;;;;;;3.22;1.13;;;7.70;99.90;;;;;;5999618;23;20203;-77
2023/03/26 03:07:59;;;;;;;3.38;1.30;;;7.70;99.90;;;;;;6005660;23;20195;-77
2023/03/26 03:10:26;;;;;;;3.22;1.33;;;7.70;99.90;;;;;;6005311;23;20199;-77
2023/03/26 03:12:54;;;;;;;4.40;1.60;;;8.00;99.90;;;;;;6003294;23;20243;-77
2023/03/26 03:15:21;;;;;;;3.88;1.90;;;7.70;99.90;;;;;;6000243;23;20246;-77
2023/03/26 03:17:50;;;;;;;2.75;1.17;;;7.70;99.90;;;;;;5983806;23;20225;-77
2023/03/26 03:20:17;;;;;;;4.93;1.40;;;7.80;99.90;;;;;;6004815;23;20195;-77
2023/03/26 03:22:44;;;;;;;3.30;1.75;;;7.80;99.90;;;;;;6005282;23;20187;-77
2023/03/26 03:25:16;;;;;;;3.60;1.65;;;7.80;99.90;;;;;;6005941;23;20187;-77
2023/03/26 03:27:44;;;;;;;3.47;1.25;;;8.10;99.90;;;;;;5986326;23;20692;-77
2023/03/26 03:30:13;;;;;;;4.05;1.30;;;7.80;99.90;;;;;;5989672;23;20196;-77
2023/03/26 03:32:40;;;;;;;3.78;1.58;;;7.80;99.90;;;;;;5996814;23;20218;-77
2023/03/26 03:35:09;;;;;;;3.25;1.48;;;7.80;99.90;;;;;;6008928;23;20684;-77
2023/03/26 03:37:36;;;;;;;3.17;1.30;;;7.80;99.90;;;;;;6005099;23;20217;-77
2023/03/26 03:40:06;;;;;;;5.68;1.30;;;7.80;99.90;;;;;;5983390;23;20193;-77
2023/03/26 03:42:33;;;;;;;4.03;1.60;;;7.70;99.90;;;;;;5997636;23;20191;-77
2023/03/26 03:45:01;;;;;;;3.00;1.35;;;7.70;99.90;;;;;;5988836;23;20192;-77
2023/03/26 03:47:28;;;;;;;4.90;1.75;;;7.70;99.90;;;;;;5978892;23;20357;-77
2023/03/26 03:49:55;;;;;;;4.35;1.77;;;7.70;99.90;;;;;;6032201;23;20623;-77
2023/03/26 03:52:24;;;;;;;2.88;1.70;;;7.80;99.90;;;;;;6006212;23;20674;-77
2023/03/26 03:54:51;;;;;;;3.13;1.10;;;7.80;99.90;;;;;;6001823;23;20667;-77
2023/03/26 03:57:20;;;;;;;3.85;1.30;;;7.80;99.90;;;;;;6011248;23;20215;-77
2023/03/26 03:59:48;;;;;;;3.80;1.42;;;7.80;99.90;;;;;;6016957;23;20527;-77
2023/03/26 04:02:24;;;;;;;3.15;1.25;;;8.10;99.90;;;;;;6004806;23;20203;-77
2023/03/26 04:04:52;;;;;;;2.65;1.25;;;7.80;99.90;;;;;;6005840;23;20601;-77
2023/03/26 04:07:19;;;;;;;4.18;1.48;;;7.80;99.90;;;;;;6004318;23;20695;-77
2023/03/26 04:09:48;;;;;;;6.85;1.40;;;7.80;99.90;;;;;;5994510;23;20201;-78
2023/03/26 04:12:15;;;;;;;3.85;2.03;;;7.80;99.90;;;;;;6009526;23;20202;-77
2023/03/26 04:14:42;;;;;;;5.10;2.58;;;8.20;99.90;;;;;;6008000;23;20212;-77
2023/03/26 04:17:12;;;;;;;6.18;1.55;;;7.80;99.90;;;;;;5977444;23;20220;-78
2023/03/26 04:19:39;;;;;;;3.97;1.50;;;7.90;99.90;;;;;;5980545;23;20193;-78
2023/03/26 04:22:08;;;;;;;3.30;1.42;;;8.30;99.90;;;;;;6017491;23;20199;-78
2023/03/26 04:24:37;;;;;;;5.13;2.17;;;8.10;99.90;;;;;;5994120;23;20267;-78
2023/03/26 04:27:07;;;;;;;4.07;1.60;;;8.00;99.90;;;;;;5999968;23;20224;-78
2023/03/26 04:29:41;;;;;;;4.68;1.70;;;8.10;99.90;;;;;;5985077;23;20553;-78
2023/03/26 04:32:13;;;;;;;3.58;1.40;;;8.30;99.90;;;;;;6022156;23;20207;-78
2023/03/26 04:34:45;;;;;;;3.15;1.55;;;8.00;99.90;;;;;;6003135;23;20685;-78
2023/03/26 04:37:20;;;;;;;4.28;1.50;;;8.00;99.90;;;;;;5998545;23;21133;-78
2023/03/26 04:39:48;;;;;;;3.92;1.38;;;8.00;99.90;;;;;;6003277;23;20254;-78
2023/03/26 04:42:19;;;;;;;4.20;1.60;;;7.90;99.90;;;;;;5995217;23;20196;-78
2023/03/26 04:44:49;;;;;;;4.10;1.55;;;8.10;99.90;;;;;;5997779;23;20279;-79
2023/03/26 04:47:17;;;;;;;3.83;1.52;;;7.90;99.90;;;;;;5990256;23;20297;-78
2023/03/26 04:49:46;;;;;;;4.03;1.35;;;8.30;99.90;;;;;;5990960;23;20221;-78
2023/03/26 04:52:14;;;;;;;4.57;1.42;;;7.90;99.90;;;;;;5988289;23;20224;-78
2023/03/26 04:54:44;;;;;;;3.65;1.58;;;7.90;99.90;;;;;;6008816;23;20221;-78
2023/03/26 04:57:19;;;;;;;2.85;1.42;;;8.00;99.90;;;;;;6010307;23;20685;-78
2023/03/26 04:59:46;;;;;;;3.85;2.05;;;8.20;99.90;;;;;;6005775;23;20195;-78
2023/03/26 05:02:14;;;;;;;4.30;1.60;;;8.00;99.90;;;;;;6002808;23;20272;-78
2023/03/26 05:04:42;;;;;;;4.90;1.67;;;8.00;99.90;;;;;;5995559;23;20204;-78
2023/03/26 05:07:10;;;;;;;6.10;2.08;;;8.00;99.90;;;;;;6005715;23;20221;-78
2023/03/26 05:09:37;;;;;;;5.72;1.80;;;8.30;99.90;;;;;;5998793;23;20716;-78
2023/03/26 05:12:05;;;;;;;7.47;1.75;;;8.00;99.90;;;;;;6021503;23;20200;-78
2023/03/26 05:14:35;;;;;;;2.92;1.65;;;8.00;99.90;;;;;;6004009;23;20334;-78
2023/03/26 05:17:04;;;;;;;5.13;2.00;;;8.10;99.90;;;;;;6001488;23;20224;-79
2023/03/26 05:19:32;;;;;;;3.35;2.00;;;8.10;99.90;;;;;;5980385;23;20218;-78
2023/03/26 05:21:59;;;;;;;3.33;1.88;;;8.10;99.90;;;;;;5995131;23;20884;-78
2023/03/26 05:24:27;;;;;;;3.20;1.60;;;8.00;99.90;;;;;;6004386;23;20217;-78
2023/03/26 05:26:55;;;;;;;5.75;1.88;;;8.10;99.90;;;;;;6023582;23;20232;-78
2023/03/26 05:29:23;;;;;;;2.30;1.35;;;8.00;99.90;;;;;;6033694;23;20195;-78
2023/03/26 05:31:51;;;;;;;7.15;2.35;;;8.00;99.90;;;;;;6015733;23;20204;-78
2023/03/26 05:34:22;;;;;;;6.13;2.38;;;8.00;99.90;;;;;;6004802;23;20738;-78
2023/03/26 05:36:50;;;;;;;4.25;1.58;;;8.00;99.90;;;;;;6003989;23;20258;-78
2023/03/26 05:39:17;;;;;;;3.80;1.58;;;8.10;99.90;;;;;;6019642;23;20192;-78
2023/03/26 05:41:44;;;;;;;3.00;1.58;;;8.10;99.90;;;;;;6025650;23;20192;-78
2023/03/26 05:44:11;;;;;;;4.82;2.13;;;8.10;99.90;;;;;;6002703;23;20204;-78
2023/03/26 05:46:38;;;;;;;4.75;2.05;;;8.10;99.90;;;;;;5996943;23;20216;-78
2023/03/26 05:49:07;;;;;;;4.68;1.60;;;8.10;99.90;;;;;;5979777;23;20276;-78
2023/03/26 05:51:34;;;;;;;4.65;1.67;;;8.10;99.90;;;;;;5988416;23;20252;-78
2023/03/26 05:54:02;;;;;;;3.75;1.98;;;8.20;99.90;;;;;;5999497;23;20216;-78
2023/03/26 05:56:29;;;;;;;3.42;1.85;;;8.30;99.90;;;;;;6005396;23;20625;-78
2023/03/26 05:58:56;;;;;;;3.15;1.55;;;8.20;99.90;;;;;;5997366;23;20221;-79
2023/03/26 06:01:24;;;;;;;3.88;1.50;;;8.20;99.90;;;;;;6002023;23;20197;-79
2023/03/26 06:03:51;;;;;;;4.38;1.65;;;8.10;99.90;;;;;;6005276;23;20204;-79
2023/03/26 06:06:21;;;;;;;4.25;1.80;;;8.20;99.90;;;;;;6005310;23;20247;-79
2023/03/26 06:08:50;;;;;;;5.28;1.92;;;8.10;99.90;;;;;;5998343;23;20729;-79
2023/03/26 06:11:18;;;;;;;3.50;1.80;;;8.10;99.90;;;;;;6007811;23;20549;-78
2023/03/26 06:13:46;;;;;;;6.30;1.75;;;8.10;99.90;;;;;;5998609;23;20218;-79
2023/03/26 06:16:16;;;;;;;3.67;1.63;;;8.10;99.90;;;;;;6005107;23;20249;-79
2023/03/26 06:18:43;;;;;;;4.32;1.92;;;8.10;99.90;;;;;;6005291;23;20191;-81
2023/03/26 06:21:10;;;;;;;5.32;1.80;;;8.10;99.90;;;;;;5992617;23;20202;-77
2023/03/26 06:23:38;;;;;;;4.57;1.50;;;8.10;99.90;;;;;;6000397;23;20244;-77
2023/03/26 06:26:05;;;;;;;2.75;1.50;;;8.10;99.90;;;;;;5993279;23;20208;-81
2023/03/26 06:28:32;;;;;;;3.28;1.20;;;8.20;99.90;;;;;;5993412;23;20190;-79
2023/03/26 06:31:01;;;;;;;4.22;1.50;;;8.20;99.90;;;;;;5991637;23;20584;-75
2023/03/26 06:33:28;;;;;;;3.47;2.28;;;8.30;99.90;;;;;;5995783;23;20188;-78
2023/03/26 06:35:56;;;;;;;5.15;2.00;;;8.30;99.90;;;;;;6000650;23;20267;-77
2023/03/26 06:38:23;;;;;;;5.15;1.42;;;8.30;99.90;;;;;;5992629;23;20197;-78
2023/03/26 06:40:51;;;;;;;3.95;1.65;;;8.40;99.90;;;;;;5993375;23;20214;-78
2023/03/26 06:43:19;;;;;;;3.70;1.90;;;8.40;99.90;;;;;;5986689;23;20186;-78
2023/03/26 06:45:50;;;;;;;2.90;1.65;;;8.40;99.90;;;;;;5987713;23;20729;-78
2023/03/26 06:48:17;;;;;;;6.85;1.90;;;8.50;99.90;;;;;;5986709;23;20558;-78
2023/03/26 06:50:45;;;;;;;3.10;1.40;;;8.50;99.90;;;;;;5988222;23;20198;-77
2023/03/26 06:53:12;;;;;;;4.38;1.73;;;8.40;99.90;;;;;;5986605;23;20197;-78
2023/03/26 06:55:39;;;;;;;4.03;2.25;;;8.50;99.90;;;;;;5990072;23;20602;-79
2023/03/26 06:58:10;;;;;;;4.68;2.20;;;8.50;99.90;;;;;;6002233;23;20649;-78
2023/03/26 07:00:37;;;;;;;4.95;1.80;;;8.50;99.90;;;;;;6003408;23;20272;-79
2023/03/26 07:03:05;;;;;;;2.65;1.60;;;8.50;99.90;;;;;;6010198;23;20206;-78
2023/03/26 07:05:32;;;;;;;3.42;1.45;;;8.50;99.90;;;;;;5997901;23;20324;-78
2023/03/26 07:07:59;;;;;;;4.28;1.98;;;8.50;99.90;;;;;;5999438;23;20645;-78
2023/03/26 07:10:26;;;;;;;5.40;1.80;;;8.40;99.90;;;;;;6003288;23;20221;-78
2023/03/26 07:12:53;;;;;;;2.72;1.50;;;8.40;99.90;;;;;;5997415;23;20645;-78
2023/03/26 07:15:21;;;;;;;4.03;1.70;;;8.40;99.90;;;;;;5999415;23;20317;-76
2023/03/26 07:17:48;;;;;;;3.58;2.00;;;8.40;99.90;;;;;;5975699;23;20262;-78
2023/03/26 07:20:16;;;;;;;4.05;1.80;;;8.40;99.90;;;;;;5987164;23;20189;-76
2023/03/26 07:22:44;;;;;;;3.35;1.90;;;8.50;99.90;;;;;;5994351;23;20184;-77
2023/03/26 07:25:12;;;;;;;4.43;1.90;;;8.50;99.90;;;;;;5984714;23;20577;-78
2023/03/26 07:27:49;;;;;;;4.10;1.70;;;8.60;99.90;;;;;;5994857;23;20696;-77
2023/03/26 07:30:24;;;;;;;3.35;1.60;;;8.50;99.90;;;;;;5994863;23;20274;-76
2023/03/26 07:32:55;;;;;;;4.38;2.13;;;8.50;99.90;;;;;;5996974;23;20888;-76
2023/03/26 07:35:28;;;;;;;3.58;1.85;;;8.50;99.90;;;;;;5997748;23;20216;-76
2023/03/26 07:38:27;;;;;;;4.18;1.70;;;8.40;99.90;;;;;;6002210;23;20188;-78
2023/03/26 07:41:02;;;;;;;3.45;1.67;;;8.40;99.90;;;;;;5984139;23;20243;-77
2023/03/26 07:43:59;;;;;;;4.65;1.85;;;8.30;99.90;;;;;;5991308;23;20196;-77
2023/03/26 07:46:32;;;;;;;4.22;2.10;;;8.20;99.90;;;;;;5990768;23;20208;-79
2023/03/26 07:49:00;;;;;;;5.03;2.20;;;8.10;99.90;;;;;;5990508;23;21991;-77
2023/03/26 07:51:28;;;;;;;7.38;2.17;;;8.10;99.90;;;;;;5994537;23;20187;-77
2023/03/26 07:53:55;;;;;;;3.53;1.75;;;7.90;99.90;;;;;;5991175;23;20268;-78
2023/03/26 07:56:29;;;;;;;5.28;2.30;;;7.80;99.90;;;;;;5993455;23;20267;-84
2023/03/26 07:59:14;;;;;;;6.60;1.95;;;7.70;99.90;;;;;;5994244;23;20200;-84
2023/03/26 08:01:55;;;;;;;7.03;2.00;;;7.60;99.90;;;;;;5990220;23;20187;-83
2023/03/26 08:04:44;;;;;;;3.22;1.85;;;7.50;99.90;;;;;;5994788;23;20193;-84
2023/03/26 08:07:21;;;;;;;4.70;2.10;;;7.40;99.90;;;;;;5990537;23;20211;-85
2023/03/26 08:10:01;;;;;;;7.35;2.63;;;7.40;99.90;;;;;;5996492;23;20246;-84
2023/03/26 08:12:37;;;;;;;7.97;2.40;;;7.40;99.90;;;;;;5990251;23;20195;-85
2023/03/26 08:15:12;;;;;;;6.32;2.47;;;7.30;99.90;;;;;;5990289;23;20226;-85
2023/03/26 08:17:47;;;;;;;7.25;2.47;;;7.30;99.90;;;;;;5992292;23;20193;-84
2023/03/26 08:20:27;;;;;;;5.07;2.50;;;7.30;99.90;;;;;;5998270;23;20264;-85
2023/03/26 08:23:02;;;;;;;4.22;2.10;;;7.30;99.90;;;;;;6000782;23;20191;-84
2023/03/26 08:25:33;;;;;;;4.88;2.13;;;7.30;99.90;;;;;;5996162;23;20215;-85
2023/03/26 08:28:14;;;;;;;5.38;2.20;;;7.30;99.90;;;;;;5998846;23;20191;-84
2023/03/26 08:30:41;;;;;;;7.15;2.20;;;7.30;99.90;;;;;;5997237;23;20193;-86
2023/03/26 08:33:16;;;;;;;5.00;2.35;;;7.30;99.90;;;;;;5985149;23;20196;-84
2023/03/26 08:35:44;;;;;;;4.28;2.10;;;7.30;99.90;;;;;;5998492;23;20228;-86
2023/03/26 08:38:13;;;;;;;3.95;2.05;;;7.30;99.90;;;;;;6000110;23;20219;-85
2023/03/26 08:41:24;;;;;;;5.93;2.30;;;7.30;99.90;;;;;;5993273;23;20294;-85
2023/03/26 08:44:30;;;;;;;6.00;2.83;;;7.30;99.90;;;;;;5921728;23;20191;-85
2023/03/26 08:47:26;;;;;;;7.20;2.85;;;7.30;99.90;;;;;;5980636;23;20275;-85
2023/03/26 08:50:37;;;;;;;6.90;2.60;;;7.30;99.90;;;;;;5981068;23;20205;-84
2023/03/26 08:53:32;;;;;;;4.55;2.40;;;7.20;99.90;;;;;;5961189;23;20187;-85
2023/03/26 08:56:05;;;;;;;5.47;2.65;;;7.30;99.90;;;;;;5968765;23;20220;-83
2023/03/26 08:58:57;;;;;;;3.92;2.50;;;7.30;99.90;;;;;;5983936;23;20753;-82
2023/03/26 09:02:01;;;;;;;5.90;2.92;;;7.30;99.90;;;;;;5989621;23;20223;-84
2023/03/26 09:05:16;;;;;;;5.13;2.75;;;7.40;99.90;;;;;;5985771;23;20680;-85
2023/03/26 09:08:05;;;;;;;5.53;2.50;;;7.50;99.90;;;;;;5992873;23;20195;-84
2023/03/26 09:10:52;;;;;;;6.03;2.60;;;7.50;99.90;;;;;;5989267;23;20681;-85
2023/03/26 09:13:54;;;;;;;4.32;2.67;;;7.50;99.90;;;;;;5992801;23;20254;-84
2023/03/26 09:17:06;;;;;;;5.53;2.67;;;7.50;99.90;;;;;;5989339;23;20215;-83
2023/03/26 09:20:02;;;;;;;6.13;3.03;;;7.60;99.90;;;;;;5993535;23;20249;-84
2023/03/26 09:22:58;;;;;;;6.70;2.67;;;7.70;99.90;;;;;;5976426;23;20551;-84
2023/03/26 09:25:48;;;;;;;6.38;2.90;;;7.70;99.90;;;;;;5979147;23;20717;-83
2023/03/26 09:28:50;;;;;;;5.05;3.15;;;7.70;99.90;;;;;;5990829;23;20656;-84
2023/03/26 09:31:44;;;;;;;5.03;2.40;;;8.00;99.90;;;;;;5989095;23;20192;-84
2023/03/26 09:34:28;;;;;;;4.72;2.60;;;8.20;99.90;;;;;;5982336;23;20705;-84
2023/03/26 09:37:05;;;;;;;7.13;3.20;;;8.50;99.90;;;;;;5979938;23;20233;-84
2023/03/26 09:39:45;;;;;;;4.85;2.50;;;8.70;99.90;;;;;;5990350;23;20195;-88
2023/03/26 09:42:18;;;;;;;6.43;2.72;;;9.00;99.90;;;;;;5993950;23;20198;-84
2023/03/26 09:45:07;;;;;;;5.20;2.13;;;9.30;99.90;;;;;;5970446;23;20631;-85
2023/03/26 09:47:52;;;;;;;3.92;2.05;;;9.40;99.90;;;;;;5996617;23;20196;-85
2023/03/26 09:50:35;;;;;;;5.53;2.50;;;9.40;99.90;;;;;;5981614;23;20618;-85
2023/03/26 09:53:36;;;;;;;3.17;2.17;;;9.50;99.90;;;;;;5971673;23;20603;-86
2023/03/26 09:56:15;;;;;;;4.72;2.22;;;9.60;99.90;;;;;;5974298;23;20307;-84
2023/03/26 09:59:17;;;;;;;4.05;1.80;;;9.60;99.90;;;;;;5970261;23;20240;-82
2023/03/26 10:01:55;;;;;;;3.80;1.45;;;9.70;99.90;;;;;;5986169;23;20761;-84
2023/03/26 10:04:41;;;;;;;2.33;1.70;;;9.70;99.90;;;;;;5985174;23;20193;-83
2023/03/26 10:07:23;;;;;;;3.88;1.63;;;9.80;99.90;;;;;;5984257;23;20205;-83
2023/03/26 10:09:58;;;;;;;2.63;1.20;;;9.90;99.90;;;;;;5995145;23;20190;-84
2023/03/26 10:12:33;;;;;;;2.40;1.77;;;10.00;99.90;;;;;;5988463;23;20273;-84
2023/03/26 10:15:17;;;;;;;2.85;1.40;;;10.20;99.90;;;;;;5993522;23;20213;-85
2023/03/26 10:17:58;;;;;;;2.03;1.35;;;10.30;99.90;;;;;;5989490;23;20265;-83
2023/03/26 10:20:32;;;;;;;2.30;1.60;;;10.40;99.90;;;;;;5983523;23;20236;-82
2023/03/26 10:23:11;;;;;;;3.67;1.88;;;10.70;99.90;;;;;;5987911;23;20190;-83
2023/03/26 10:26:00;;;;;;;2.25;1.45;;;11.40;99.90;;;;;;5988487;23;20214;-86
2023/03/26 10:28:45;;;;;;;2.07;1.20;;;12.00;99.90;;;;;;5996380;23;20201;-80
2023/03/26 10:31:35;;;;;;;1.30;1.00;;;12.60;99.90;;;;;;5985053;23;20503;-76
2023/03/26 10:34:14;;;;;;;2.20;1.17;;;13.00;99.90;;;;;;5992046;23;20473;-82
2023/03/26 10:36:53;;;;;;;2.17;1.10;;;12.90;99.90;;;;;;5981632;23;20552;-80
2023/03/26 10:39:33;;;;;;;1.80;1.60;;;13.40;99.90;;;;;;6002797;23;20526;-85
2023/03/26 10:42:12;;;;;;;1.80;1.20;;;13.40;99.90;;;;;;5986047;23;20947;-81
2023/03/26 10:45:27;;;;;;;2.50;1.60;;;13.50;99.90;;;;;;5994113;23;20455;-83
2023/03/26 10:48:25;;;;;;;1.30;0.80;;;13.50;99.90;;;;;;5973422;23;20441;-82
2023/03/26 10:51:08;;;;;;;2.23;1.30;;;13.90;99.90;;;;;;5991631;23;20443;-80
2023/03/26 10:53:41;;;;;;;1.33;1.07;;;13.70;99.90;;;;;;5992607;23;20451;-81
2023/03/26 10:56:16;;;;;;;2.33;1.20;;;14.00;99.90;;;;;;5986995;23;20843;-82
2023/03/26 10:58:46;;;;;;;1.23;0.93;;;14.10;99.90;;;;;;5988292;23;20554;-82
2023/03/26 11:01:23;;;;;;;1.40;0.80;;;13.90;99.90;;;;;;5998546;23;20790;-82
2023/03/26 11:03:53;;;;;;;1.20;0.97;;;14.00;99.90;;;;;;5977374;23;20434;-82
2023/03/26 11:06:30;;;;;;;2.97;1.20;;;14.10;99.90;;;;;;5994008;23;20457;-81
2023/03/26 11:09:05;;;;;;;2.10;1.10;;;14.70;99.90;;;;;;6002886;23;20532;-68
2023/03/26 11:11:43;;;;;;;3.33;1.53;;;15.40;99.90;;;;;;5981452;23;20994;-68
2023/03/26 11:14:16;;;;;;;1.97;0.83;;;16.00;99.90;;;;;;5987873;23;20487;-75
2023/03/26 11:16:54;;;;;;;1.77;1.00;;;16.60;99.90;;;;;;5988640;23;20499;-79
2023/03/26 11:19:28;;;;;;;2.00;1.00;;;17.00;99.90;;;;;;5995835;23;20433;-79
2023/03/26 11:22:02;;;;;;;2.20;1.00;;;17.10;99.90;;;;;;5991371;23;20510;-77
2023/03/26 11:24:51;;;;;;;1.23;0.90;;;16.90;99.90;;;;;;5996780;23;20472;-71
2023/03/26 11:27:27;;;;;;;1.60;0.70;;;17.20;99.90;;;;;;5993048;23;20507;-77
2023/03/26 11:30:06;;;;;;;0.90;0.80;;;16.60;99.90;;;;;;5994242;23;21041;-76
2023/03/26 11:32:40;;;;;;;1.00;0.80;;;16.10;99.90;;;;;;6000250;23;20532;-77
2023/03/26 11:35:15;;;;;;;0.90;0.80;;;16.00;99.90;;;;;;5989314;23;20463;-78
2023/03/26 11:37:46;;;;;;;1.63;1.10;;;15.70;99.90;;;;;;5991487;23;20463;-77
2023/03/26 11:40:20;;;;;;;1.30;0.83;;;15.50;99.90;;;;;;5997008;23;20441;-76
2023/03/26 11:42:49;;;;;;;1.30;0.80;;;15.00;99.90;;;;;;6000769;23;21001;-77
2023/03/26 11:45:21;;;;;;;1.03;0.70;;;14.50;99.90;;;;;;5984057;23;20472;-76
2023/03/26 11:47:52;;;;;;;0.87;0.73;;;13.90;99.90;;;;;;5986887;23;20447;-76
2023/03/26 11:50:25;;;;;;;0.90;0.80;;;13.50;99.90;;;;;;5995054;23;20454;-76
2023/03/26 11:52:52;;;;;;;3.47;0.83;;;13.20;99.90;;;;;;5995587;23;20447;-76
2023/03/26 11:55:20;;;;;;;2.40;1.00;;;13.00;99.90;;;;;;5988658;23;20468;-77
2023/03/26 11:57:52;;;;;;;1.03;0.90;;;13.00;99.90;;;;;;6001264;23;20445;-78
2023/03/26 12:00:22;;;;;;;1.80;0.90;;;13.50;99.90;;;;;;5996536;23;20467;-77
2023/03/26 12:02:56;;;;;;;1.70;0.83;;;14.30;99.90;;;;;;5979312;23;20437;-78
2023/03/26 12:05:26;;;;;;;1.33;1.00;;;15.00;99.90;;;;;;5991131;23;21018;-78
2023/03/26 12:07:55;;;;;;;1.60;1.00;;;15.60;99.90;;;;;;6002788;23;20445;-78
2023/03/26 12:10:25;;;;;;;1.83;1.00;;;15.80;99.90;;;;;;5990361;23;20426;-77
2023/03/26 12:12:55;;;;;;;1.50;1.00;;;15.30;99.90;;;;;;5991310;23;20454;-77
2023/03/26 12:15:24;;;;;;;1.67;1.10;;;14.60;99.90;;;;;;5998230;23;20504;-76
2023/03/26 12:17:56;;;;;;;1.00;0.77;;;13.60;99.90;;;;;;5994105;23;20438;-77
2023/03/26 12:20:37;;;;;;;1.77;1.00;;;12.90;99.90;;;;;;5986074;23;20930;-77
2023/03/26 12:23:06;;;;;;;1.73;0.80;;;12.40;99.90;;;;;;6006028;23;20521;-78
2023/03/26 12:25:37;;;;;;;1.47;0.87;;;12.30;99.90;;;;;;5991713;23;20458;-77
2023/03/26 12:28:16;;;;;;;1.33;0.90;;;12.70;99.90;;;;;;5987819;23;20572;-77
2023/03/26 12:30:53;;;;;;;2.63;1.03;;;13.30;99.90;;;;;;5999966;23;20457;-77
2023/03/26 12:33:26;;;;;;;1.30;0.80;;;13.90;99.90;;;;;;5993595;23;21004;-78
2023/03/26 12:35:56;;;;;;;1.87;0.97;;;14.50;99.90;;;;;;6001188;23;20532;-77
2023/03/26 12:38:31;;;;;;;1.30;1.20;;;15.00;99.90;;;;;;5981667;23;20441;-76
2023/03/26 12:41:07;;;;;;;2.03;0.90;;;15.30;99.90;;;;;;5983563;23;20437;-78
2023/03/26 12:43:40;;;;;;;2.27;1.20;;;15.60;99.90;;;;;;5993747;23;20492;-79
2023/03/26 12:46:23;;;;;;;1.33;0.93;;;15.90;99.90;;;;;;5995758;23;20493;-79
2023/03/26 12:48:53;;;;;;;2.83;1.10;;;16.10;99.90;;;;;;5993686;23;23048;-79
2023/03/26 12:51:36;;;;;;;1.53;1.00;;;15.90;99.90;;;;;;6000025;23;20444;-79
2023/03/26 12:54:22;;;;;;;2.50;1.10;;;15.80;99.90;;;;;;5990867;23;20442;-79
2023/03/26 12:57:01;;;;;;;1.40;0.80;;;15.90;99.90;;;;;;5974663;23;20484;-80
2023/03/26 12:59:47;;;;;;;1.77;1.00;;;16.20;99.90;;;;;;5987441;23;20446;-79
2023/03/26 13:02:48;;;;;;;2.47;1.47;;;16.40;99.90;;;;;;5984928;23;20437;-78
2023/03/26 13:05:34;;;;;;;1.80;0.90;;;16.90;99.90;;;;;;5978679;23;20460;-79
2023/03/26 13:08:25;;;;;;;2.20;1.20;;;16.60;99.90;;;;;;5983367;23;20848;-77
2023/03/26 13:11:00;;;;;;;2.27;1.03;;;17.00;99.90;;;;;;5991627;23;20474;-79
2023/03/26 13:14:03;;;;;;;2.00;0.83;;;17.10;99.90;;;;;;5981566;23;20437;-78
2023/03/26 13:16:40;;;;;;;1.77;1.40;;;17.50;99.80;;;;;;5985215;23;20822;-79
2023/03/26 13:19:11;;;;;;;1.70;1.20;;;18.10;97.80;;;;;;5978003;23;20441;-78
2023/03/26 13:21:51;;;;;;;1.33;1.00;;;17.80;96.60;;;;;;5987955;23;20439;-69
2023/03/26 13:24:31;;;;;;;1.70;1.00;;;17.50;97.50;;;;;;5982659;23;20465;-72
2023/03/26 13:27:16;;;;;;;2.20;1.30;;;17.30;97.30;;;;;;5977431;23;20448;-78
2023/03/26 13:29:55;;;;;;;2.73;1.43;;;17.20;97.70;;;;;;5983132;23;20465;-78
2023/03/26 13:32:31;;;;;;;2.03;1.10;;;16.90;97.10;;;;;;5990848;23;20473;-78